sensor_id;sensor_type;location;lat;lon;timestamp;temperature;humidity
19258;DHT22;9763;48.780;9.212;2022-08-19T00:00:05;25.30;52.80
19258;DHT22;9763;48.780;9.212;2022-08-19T00:03:31;25.20;52.90
19258;DHT22;9763;48.780;9.212;2022-08-19T00:06:55;25.20;53.00
19258;DHT22;9763;48.780;9.212;2022-08-19T00:10:21;25.20;53.00
19258;DHT22;9763;48.780;9.212;2022-08-19T00:13:46;25.10;53.00
19258;DHT22;9763;48.780;9.212;2022-08-19T00:17:10;25.10;53.10
19258;DHT22;9763;48.780;9.212;2022-08-19T00:20:34;25.10;53.10
19258;DHT22;9763;48.780;9.212;2022-08-19T00:23:58;25.10;53.00
19258;DHT22;9763;48.780;9.212;2022-08-19T00:27:23;25.10;53.10
19258;DHT22;9763;48.780;9.212;2022-08-19T00:30:48;25.10;53.30
19258;DHT22;9763;48.780;9.212;2022-08-19T00:34:14;25.10;53.20
19258;DHT22;9763;48.780;9.212;2022-08-19T00:37:38;25.00;53.40
19258;DHT22;9763;48.780;9.212;2022-08-19T00:41:06;25.00;53.40
19258;DHT22;9763;48.780;9.212;2022-08-19T00:44:32;25.00;53.70
19258;DHT22;9763;48.780;9.212;2022-08-19T00:47:55;24.90;53.70
19258;DHT22;9763;48.780;9.212;2022-08-19T00:51:19;24.90;53.80
19258;DHT22;9763;48.780;9.212;2022-08-19T00:54:45;24.80;53.80
19258;DHT22;9763;48.780;9.212;2022-08-19T00:58:17;24.80;53.90
19258;DHT22;9763;48.780;9.212;2022-08-19T01:01:48;24.80;53.90
19258;DHT22;9763;48.780;9.212;2022-08-19T01:05:16;26.10;54.90
19258;DHT22;9763;48.780;9.212;2022-08-19T01:08:42;24.70;54.00
19258;DHT22;9763;48.780;9.212;2022-08-19T01:12:08;24.80;54.00
19258;DHT22;9763;48.780;9.212;2022-08-19T01:15:34;24.80;54.20
19258;DHT22;9763;48.780;9.212;2022-08-19T01:19:21;24.70;54.10
19258;DHT22;9763;48.780;9.212;2022-08-19T01:22:54;24.70;54.20
19258;DHT22;9763;48.780;9.212;2022-08-19T01:26:23;24.70;54.30
19258;DHT22;9763;48.780;9.212;2022-08-19T01:29:48;24.70;54.50
19258;DHT22;9763;48.780;9.212;2022-08-19T01:33:11;24.70;54.30
19258;DHT22;9763;48.780;9.212;2022-08-19T01:36:37;24.70;54.30
19258;DHT22;9763;48.780;9.212;2022-08-19T01:40:06;24.70;54.40
19258;DHT22;9763;48.780;9.212;2022-08-19T01:43:31;24.70;54.50
19258;DHT22;9763;48.780;9.212;2022-08-19T01:46:55;24.70;54.40
19258;DHT22;9763;48.780;9.212;2022-08-19T01:50:18;24.70;54.50
19258;DHT22;9763;48.780;9.212;2022-08-19T01:53:45;24.70;54.50
19258;DHT22;9763;48.780;9.212;2022-08-19T01:57:12;24.70;54.50
19258;DHT22;9763;48.780;9.212;2022-08-19T02:04:36;24.60;54.80
19258;DHT22;9763;48.780;9.212;2022-08-19T02:08:01;24.60;54.70
19258;DHT22;9763;48.780;9.212;2022-08-19T02:11:26;24.60;54.80
19258;DHT22;9763;48.780;9.212;2022-08-19T02:14:54;24.50;54.70
19258;DHT22;9763;48.780;9.212;2022-08-19T02:18:18;24.50;54.90
19258;DHT22;9763;48.780;9.212;2022-08-19T02:21:49;24.50;54.80
19258;DHT22;9763;48.780;9.212;2022-08-19T02:25:13;24.50;55.00
19258;DHT22;9763;48.780;9.212;2022-08-19T02:28:37;24.50;55.00
19258;DHT22;9763;48.780;9.212;2022-08-19T02:32:05;24.40;54.90
19258;DHT22;9763;48.780;9.212;2022-08-19T02:35:28;24.40;55.10
19258;DHT22;9763;48.780;9.212;2022-08-19T02:38:52;24.40;55.10
19258;DHT22;9763;48.780;9.212;2022-08-19T02:42:16;24.40;55.30
19258;DHT22;9763;48.780;9.212;2022-08-19T02:45:40;24.40;55.30
19258;DHT22;9763;48.780;9.212;2022-08-19T02:49:06;24.30;56.10
19258;DHT22;9763;48.780;9.212;2022-08-19T02:52:31;24.30;55.50
19258;DHT22;9763;48.780;9.212;2022-08-19T02:55:56;24.30;55.60
19258;DHT22;9763;48.780;9.212;2022-08-19T02:59:20;24.20;55.70
19258;DHT22;9763;48.780;9.212;2022-08-19T03:02:44;24.20;55.60
19258;DHT22;9763;48.780;9.212;2022-08-19T03:06:13;24.20;55.60
19258;DHT22;9763;48.780;9.212;2022-08-19T03:09:38;24.20;55.80
19258;DHT22;9763;48.780;9.212;2022-08-19T03:13:03;24.10;55.70
19258;DHT22;9763;48.780;9.212;2022-08-19T03:16:30;24.10;55.90
19258;DHT22;9763;48.780;9.212;2022-08-19T03:19:56;24.10;56.10
19258;DHT22;9763;48.780;9.212;2022-08-19T03:23:22;24.00;56.30
19258;DHT22;9763;48.780;9.212;2022-08-19T03:26:49;24.00;56.20
19258;DHT22;9763;48.780;9.212;2022-08-19T03:30:14;24.00;56.30
19258;DHT22;9763;48.780;9.212;2022-08-19T03:33:44;23.90;56.40
19258;DHT22;9763;48.780;9.212;2022-08-19T03:37:12;23.90;56.30
19258;DHT22;9763;48.780;9.212;2022-08-19T03:40:37;23.90;56.30
19258;DHT22;9763;48.780;9.212;2022-08-19T03:44:01;23.80;56.50
19258;DHT22;9763;48.780;9.212;2022-08-19T03:47:33;23.80;56.40
19258;DHT22;9763;48.780;9.212;2022-08-19T03:50:57;23.80;56.50
19258;DHT22;9763;48.780;9.212;2022-08-19T03:54:24;23.80;56.70
19258;DHT22;9763;48.780;9.212;2022-08-19T03:57:49;23.80;56.70
19258;DHT22;9763;48.780;9.212;2022-08-19T04:01:22;23.80;56.70
19258;DHT22;9763;48.780;9.212;2022-08-19T04:04:56;23.80;56.70
19258;DHT22;9763;48.780;9.212;2022-08-19T04:08:20;23.70;56.80
19258;DHT22;9763;48.780;9.212;2022-08-19T04:11:47;23.70;56.80
19258;DHT22;9763;48.780;9.212;2022-08-19T04:15:17;23.70;57.10
19258;DHT22;9763;48.780;9.212;2022-08-19T04:18:41;23.70;57.00
19258;DHT22;9763;48.780;9.212;2022-08-19T04:22:05;23.70;56.90
19258;DHT22;9763;48.780;9.212;2022-08-19T04:25:35;23.70;57.00
19258;DHT22;9763;48.780;9.212;2022-08-19T04:29:03;23.60;57.10
19258;DHT22;9763;48.780;9.212;2022-08-19T04:32:35;23.60;57.00
19258;DHT22;9763;48.780;9.212;2022-08-19T04:35:58;23.60;57.10
19258;DHT22;9763;48.780;9.212;2022-08-19T04:39:23;23.60;57.70
19258;DHT22;9763;48.780;9.212;2022-08-19T04:43:10;23.60;57.10
19258;DHT22;9763;48.780;9.212;2022-08-19T04:46:34;23.60;57.00
19258;DHT22;9763;48.780;9.212;2022-08-19T04:50:13;23.60;57.20
19258;DHT22;9763;48.780;9.212;2022-08-19T04:53:41;23.60;57.80
19258;DHT22;9763;48.780;9.212;2022-08-19T04:57:07;23.60;57.10
19258;DHT22;9763;48.780;9.212;2022-08-19T05:00:32;23.60;57.40
19258;DHT22;9763;48.780;9.212;2022-08-19T05:03:59;23.60;57.40
19258;DHT22;9763;48.780;9.212;2022-08-19T05:07:25;23.60;57.60
19258;DHT22;9763;48.780;9.212;2022-08-19T05:10:51;23.60;57.70
19258;DHT22;9763;48.780;9.212;2022-08-19T05:14:15;23.70;57.90
19258;DHT22;9763;48.780;9.212;2022-08-19T05:17:38;23.60;57.60
19258;DHT22;9763;48.780;9.212;2022-08-19T05:21:23;23.60;57.70
19258;DHT22;9763;48.780;9.212;2022-08-19T05:25:08;23.60;57.80
19258;DHT22;9763;48.780;9.212;2022-08-19T05:28:35;23.60;57.90
19258;DHT22;9763;48.780;9.212;2022-08-19T05:31:58;23.60;58.00
19258;DHT22;9763;48.780;9.212;2022-08-19T05:35:22;23.60;57.80
19258;DHT22;9763;48.780;9.212;2022-08-19T05:38:46;23.60;57.80
19258;DHT22;9763;48.780;9.212;2022-08-19T05:42:13;23.60;58.50
19258;DHT22;9763;48.780;9.212;2022-08-19T05:45:40;23.60;58.00
19258;DHT22;9763;48.780;9.212;2022-08-19T05:49:05;23.60;58.00
19258;DHT22;9763;48.780;9.212;2022-08-19T05:52:29;23.60;57.80
19258;DHT22;9763;48.780;9.212;2022-08-19T05:55:54;23.60;57.90
19258;DHT22;9763;48.780;9.212;2022-08-19T05:59:21;23.60;57.90
19258;DHT22;9763;48.780;9.212;2022-08-19T06:02:46;23.60;58.00
19258;DHT22;9763;48.780;9.212;2022-08-19T06:06:12;23.60;58.00
19258;DHT22;9763;48.780;9.212;2022-08-19T06:09:37;23.60;58.00
19258;DHT22;9763;48.780;9.212;2022-08-19T06:13:00;23.60;58.00
19258;DHT22;9763;48.780;9.212;2022-08-19T06:16:26;23.60;58.00
19258;DHT22;9763;48.780;9.212;2022-08-19T06:19:50;22.90;57.50
19258;DHT22;9763;48.780;9.212;2022-08-19T06:23:14;23.70;58.30
19258;DHT22;9763;48.780;9.212;2022-08-19T06:26:41;23.60;58.20
19258;DHT22;9763;48.780;9.212;2022-08-19T06:30:12;23.70;58.60
19258;DHT22;9763;48.780;9.212;2022-08-19T06:33:37;23.60;58.50
19258;DHT22;9763;48.780;9.212;2022-08-19T06:37:02;23.60;58.70
19258;DHT22;9763;48.780;9.212;2022-08-19T06:40:27;23.60;58.80
19258;DHT22;9763;48.780;9.212;2022-08-19T06:43:51;23.60;58.80
19258;DHT22;9763;48.780;9.212;2022-08-19T06:47:18;23.60;58.90
19258;DHT22;9763;48.780;9.212;2022-08-19T06:50:51;23.60;59.00
19258;DHT22;9763;48.780;9.212;2022-08-19T06:54:16;23.60;59.30
19258;DHT22;9763;48.780;9.212;2022-08-19T06:57:41;23.50;59.40
19258;DHT22;9763;48.780;9.212;2022-08-19T07:01:08;23.40;59.20
19258;DHT22;9763;48.780;9.212;2022-08-19T07:04:34;23.40;59.70
19258;DHT22;9763;48.780;9.212;2022-08-19T07:07:59;23.50;59.70
19258;DHT22;9763;48.780;9.212;2022-08-19T07:11:27;23.40;59.70
19258;DHT22;9763;48.780;9.212;2022-08-19T07:14:56;23.40;59.70
19258;DHT22;9763;48.780;9.212;2022-08-19T07:18:22;23.40;59.70
19258;DHT22;9763;48.780;9.212;2022-08-19T07:21:50;23.50;59.90
19258;DHT22;9763;48.780;9.212;2022-08-19T07:25:16;23.50;59.80
19258;DHT22;9763;48.780;9.212;2022-08-19T07:28:41;23.40;59.60
19258;DHT22;9763;48.780;9.212;2022-08-19T07:32:12;23.50;59.70
19258;DHT22;9763;48.780;9.212;2022-08-19T07:35:36;23.50;59.60
19258;DHT22;9763;48.780;9.212;2022-08-19T07:39:02;23.50;59.70
19258;DHT22;9763;48.780;9.212;2022-08-19T07:42:30;23.50;59.60
19258;DHT22;9763;48.780;9.212;2022-08-19T07:45:54;23.50;59.50
19258;DHT22;9763;48.780;9.212;2022-08-19T07:49:19;23.40;59.50
19258;DHT22;9763;48.780;9.212;2022-08-19T07:52:44;23.50;59.60
19258;DHT22;9763;48.780;9.212;2022-08-19T07:56:11;23.40;59.50
19258;DHT22;9763;48.780;9.212;2022-08-19T07:59:37;23.40;59.50
19258;DHT22;9763;48.780;9.212;2022-08-19T08:03:01;23.50;59.80
19258;DHT22;9763;48.780;9.212;2022-08-19T08:06:25;23.50;59.70
19258;DHT22;9763;48.780;9.212;2022-08-19T08:10:07;23.40;59.60
19258;DHT22;9763;48.780;9.212;2022-08-19T08:13:42;23.40;59.60
19258;DHT22;9763;48.780;9.212;2022-08-19T08:17:08;23.40;60.70
19258;DHT22;9763;48.780;9.212;2022-08-19T08:20:33;23.30;59.90
19258;DHT22;9763;48.780;9.212;2022-08-19T08:23:56;23.30;60.10
19258;DHT22;9763;48.780;9.212;2022-08-19T08:27:25;23.20;60.20
19258;DHT22;9763;48.780;9.212;2022-08-19T08:30:53;23.10;60.20
19258;DHT22;9763;48.780;9.212;2022-08-19T08:34:19;23.10;60.50
19258;DHT22;9763;48.780;9.212;2022-08-19T08:37:44;23.10;61.20
19258;DHT22;9763;48.780;9.212;2022-08-19T08:41:17;23.10;61.60
19258;DHT22;9763;48.780;9.212;2022-08-19T08:44:55;23.00;61.80
19258;DHT22;9763;48.780;9.212;2022-08-19T08:48:27;23.00;61.60
19258;DHT22;9763;48.780;9.212;2022-08-19T08:52:04;23.00;62.30
19258;DHT22;9763;48.780;9.212;2022-08-19T08:55:30;23.00;63.20
19258;DHT22;9763;48.780;9.212;2022-08-19T08:59:00;23.10;62.80
19258;DHT22;9763;48.780;9.212;2022-08-19T09:02:29;23.10;62.60
19258;DHT22;9763;48.780;9.212;2022-08-19T09:05:59;23.20;63.50
19258;DHT22;9763;48.780;9.212;2022-08-19T09:09:30;23.20;64.00
19258;DHT22;9763;48.780;9.212;2022-08-19T09:13:04;23.30;64.20
19258;DHT22;9763;48.780;9.212;2022-08-19T09:16:36;23.40;64.30
19258;DHT22;9763;48.780;9.212;2022-08-19T09:20:05;23.50;63.90
19258;DHT22;9763;48.780;9.212;2022-08-19T09:23:41;23.60;63.70
19258;DHT22;9763;48.780;9.212;2022-08-19T09:27:07;23.60;63.30
19258;DHT22;9763;48.780;9.212;2022-08-19T09:30:41;23.70;63.40
19258;DHT22;9763;48.780;9.212;2022-08-19T09:34:04;23.60;63.20
19258;DHT22;9763;48.780;9.212;2022-08-19T09:37:42;23.80;63.60
19258;DHT22;9763;48.780;9.212;2022-08-19T09:41:08;23.60;63.20
19258;DHT22;9763;48.780;9.212;2022-08-19T09:44:34;23.70;63.40
19258;DHT22;9763;48.780;9.212;2022-08-19T09:47:58;23.70;63.60
19258;DHT22;9763;48.780;9.212;2022-08-19T09:51:25;23.60;63.50
19258;DHT22;9763;48.780;9.212;2022-08-19T09:54:52;23.60;63.50
19258;DHT22;9763;48.780;9.212;2022-08-19T09:58:16;23.60;63.50
19258;DHT22;9763;48.780;9.212;2022-08-19T10:01:47;23.70;63.50
19258;DHT22;9763;48.780;9.212;2022-08-19T10:05:10;23.70;63.50
19258;DHT22;9763;48.780;9.212;2022-08-19T10:08:52;23.60;63.50
19258;DHT22;9763;48.780;9.212;2022-08-19T10:12:16;23.70;63.60
19258;DHT22;9763;48.780;9.212;2022-08-19T10:15:41;23.70;64.00
19258;DHT22;9763;48.780;9.212;2022-08-19T10:19:11;23.70;64.20
19258;DHT22;9763;48.780;9.212;2022-08-19T10:22:35;23.70;64.00
19258;DHT22;9763;48.780;9.212;2022-08-19T10:25:59;23.70;64.10
19258;DHT22;9763;48.780;9.212;2022-08-19T10:29:23;23.80;64.40
19258;DHT22;9763;48.780;9.212;2022-08-19T10:32:54;23.80;64.80
19258;DHT22;9763;48.780;9.212;2022-08-19T10:36:21;23.80;64.40
19258;DHT22;9763;48.780;9.212;2022-08-19T10:39:46;23.80;64.60
19258;DHT22;9763;48.780;9.212;2022-08-19T10:43:10;23.80;64.50
19258;DHT22;9763;48.780;9.212;2022-08-19T10:46:36;23.80;64.80
19258;DHT22;9763;48.780;9.212;2022-08-19T10:50:09;23.80;64.90
19258;DHT22;9763;48.780;9.212;2022-08-19T10:53:52;23.90;65.10
19258;DHT22;9763;48.780;9.212;2022-08-19T10:57:17;24.00;65.50
19258;DHT22;9763;48.780;9.212;2022-08-19T11:00:40;24.00;65.30
19258;DHT22;9763;48.780;9.212;2022-08-19T11:04:04;24.10;65.20
19258;DHT22;9763;48.780;9.212;2022-08-19T11:07:30;24.20;65.00
19258;DHT22;9763;48.780;9.212;2022-08-19T11:10:59;24.20;64.70
19258;DHT22;9763;48.780;9.212;2022-08-19T11:14:25;24.30;64.80
19258;DHT22;9763;48.780;9.212;2022-08-19T11:17:54;24.30;64.40
19258;DHT22;9763;48.780;9.212;2022-08-19T11:21:20;24.30;64.30
19258;DHT22;9763;48.780;9.212;2022-08-19T11:24:45;24.40;64.50
19258;DHT22;9763;48.780;9.212;2022-08-19T11:28:11;24.40;64.40
19258;DHT22;9763;48.780;9.212;2022-08-19T11:31:35;24.40;64.40
19258;DHT22;9763;48.780;9.212;2022-08-19T11:35:00;24.40;64.30
19258;DHT22;9763;48.780;9.212;2022-08-19T11:38:24;24.50;64.10
19258;DHT22;9763;48.780;9.212;2022-08-19T11:41:48;24.50;64.00
19258;DHT22;9763;48.780;9.212;2022-08-19T11:45:13;24.60;64.20
19258;DHT22;9763;48.780;9.212;2022-08-19T11:48:38;24.60;64.40
19258;DHT22;9763;48.780;9.212;2022-08-19T11:52:02;24.70;64.60
19258;DHT22;9763;48.780;9.212;2022-08-19T11:55:26;24.80;64.50
19258;DHT22;9763;48.780;9.212;2022-08-19T11:58:50;24.90;64.30
19258;DHT22;9763;48.780;9.212;2022-08-19T12:02:16;25.00;64.20
19258;DHT22;9763;48.780;9.212;2022-08-19T12:05:41;25.00;64.20
19258;DHT22;9763;48.780;9.212;2022-08-19T12:09:08;25.10;64.10
19258;DHT22;9763;48.780;9.212;2022-08-19T12:12:33;25.10;64.00
19258;DHT22;9763;48.780;9.212;2022-08-19T12:15:57;25.20;63.70
19258;DHT22;9763;48.780;9.212;2022-08-19T12:19:22;25.20;63.50
19258;DHT22;9763;48.780;9.212;2022-08-19T12:22:46;25.20;63.50
19258;DHT22;9763;48.780;9.212;2022-08-19T12:26:11;25.20;63.50
19258;DHT22;9763;48.780;9.212;2022-08-19T12:29:35;25.20;63.40
19258;DHT22;9763;48.780;9.212;2022-08-19T12:32:58;25.20;63.30
19258;DHT22;9763;48.780;9.212;2022-08-19T12:36:24;25.20;63.40
19258;DHT22;9763;48.780;9.212;2022-08-19T12:39:48;25.20;63.20
19258;DHT22;9763;48.780;9.212;2022-08-19T12:43:11;25.20;63.10
19258;DHT22;9763;48.780;9.212;2022-08-19T12:46:35;25.20;63.10
19258;DHT22;9763;48.780;9.212;2022-08-19T12:50:00;25.20;63.10
19258;DHT22;9763;48.780;9.212;2022-08-19T12:53:29;25.20;63.00
19258;DHT22;9763;48.780;9.212;2022-08-19T12:56:52;25.20;63.10
19258;DHT22;9763;48.780;9.212;2022-08-19T13:00:18;25.20;63.20
19258;DHT22;9763;48.780;9.212;2022-08-19T13:03:45;25.30;63.70
19258;DHT22;9763;48.780;9.212;2022-08-19T13:07:12;25.40;63.90
19258;DHT22;9763;48.780;9.212;2022-08-19T13:10:37;25.50;63.90
19258;DHT22;9763;48.780;9.212;2022-08-19T13:14:02;25.50;63.70
19258;DHT22;9763;48.780;9.212;2022-08-19T13:17:26;25.50;63.50
19258;DHT22;9763;48.780;9.212;2022-08-19T13:20:50;25.50;63.10
19258;DHT22;9763;48.780;9.212;2022-08-19T13:24:15;25.50;63.00
19258;DHT22;9763;48.780;9.212;2022-08-19T13:27:40;25.40;62.90
19258;DHT22;9763;48.780;9.212;2022-08-19T13:31:03;25.30;62.90
19258;DHT22;9763;48.780;9.212;2022-08-19T13:34:45;25.20;62.80
19258;DHT22;9763;48.780;9.212;2022-08-19T13:38:09;25.10;62.90
19258;DHT22;9763;48.780;9.212;2022-08-19T13:41:34;25.00;63.30
19258;DHT22;9763;48.780;9.212;2022-08-19T13:44:59;24.80;63.40
19258;DHT22;9763;48.780;9.212;2022-08-19T13:48:23;24.70;63.70
19258;DHT22;9763;48.780;9.212;2022-08-19T13:51:48;24.60;63.80
19258;DHT22;9763;48.780;9.212;2022-08-19T13:55:12;24.50;64.00
19258;DHT22;9763;48.780;9.212;2022-08-19T13:58:46;24.40;64.00
19258;DHT22;9763;48.780;9.212;2022-08-19T14:02:10;24.30;64.00
19258;DHT22;9763;48.780;9.212;2022-08-19T14:05:34;24.20;64.00
19258;DHT22;9763;48.780;9.212;2022-08-19T14:08:58;24.10;63.90
19258;DHT22;9763;48.780;9.212;2022-08-19T14:12:23;24.00;64.50
19258;DHT22;9763;48.780;9.212;2022-08-19T14:15:50;23.90;65.20
19258;DHT22;9763;48.780;9.212;2022-08-19T14:19:16;23.90;65.70
19258;DHT22;9763;48.780;9.212;2022-08-19T14:22:42;23.80;66.00
19258;DHT22;9763;48.780;9.212;2022-08-19T14:26:08;23.70;65.90
19258;DHT22;9763;48.780;9.212;2022-08-19T14:29:33;23.70;65.90
19258;DHT22;9763;48.780;9.212;2022-08-19T14:32:59;23.60;66.00
19258;DHT22;9763;48.780;9.212;2022-08-19T14:36:25;23.60;66.10
19258;DHT22;9763;48.780;9.212;2022-08-19T14:39:48;23.70;66.40
19258;DHT22;9763;48.780;9.212;2022-08-19T14:43:12;23.70;66.50
19258;DHT22;9763;48.780;9.212;2022-08-19T14:46:39;23.80;67.00
19258;DHT22;9763;48.780;9.212;2022-08-19T14:50:11;23.90;67.10
19258;DHT22;9763;48.780;9.212;2022-08-19T14:53:41;23.90;66.90
19258;DHT22;9763;48.780;9.212;2022-08-19T14:57:05;24.00;67.00
19258;DHT22;9763;48.780;9.212;2022-08-19T15:00:29;24.10;66.60
19258;DHT22;9763;48.780;9.212;2022-08-19T15:03:52;24.20;66.50
19258;DHT22;9763;48.780;9.212;2022-08-19T15:07:17;24.20;66.40
19258;DHT22;9763;48.780;9.212;2022-08-19T15:10:42;24.30;66.20
19258;DHT22;9763;48.780;9.212;2022-08-19T15:14:05;24.30;66.10
19258;DHT22;9763;48.780;9.212;2022-08-19T15:17:29;24.30;66.10
19258;DHT22;9763;48.780;9.212;2022-08-19T15:21:13;24.40;66.30
19258;DHT22;9763;48.780;9.212;2022-08-19T15:24:48;24.50;66.70
19258;DHT22;9763;48.780;9.212;2022-08-19T15:28:13;24.60;67.00
19258;DHT22;9763;48.780;9.212;2022-08-19T15:31:38;24.80;67.30
19258;DHT22;9763;48.780;9.212;2022-08-19T15:35:02;25.00;67.30
19258;DHT22;9763;48.780;9.212;2022-08-19T15:38:26;25.10;67.00
19258;DHT22;9763;48.780;9.212;2022-08-19T15:41:50;25.30;66.70
19258;DHT22;9763;48.780;9.212;2022-08-19T15:45:16;25.30;66.30
19258;DHT22;9763;48.780;9.212;2022-08-19T15:48:41;25.40;66.00
19258;DHT22;9763;48.780;9.212;2022-08-19T15:52:10;25.40;65.80
19258;DHT22;9763;48.780;9.212;2022-08-19T15:55:35;25.40;65.70
19258;DHT22;9763;48.780;9.212;2022-08-19T15:59:04;25.40;65.80
19258;DHT22;9763;48.780;9.212;2022-08-19T16:02:47;25.50;65.80
19258;DHT22;9763;48.780;9.212;2022-08-19T16:06:29;25.40;65.70
19258;DHT22;9763;48.780;9.212;2022-08-19T16:09:53;25.50;65.90
19258;DHT22;9763;48.780;9.212;2022-08-19T16:13:17;25.50;66.20
19258;DHT22;9763;48.780;9.212;2022-08-19T16:16:41;25.60;66.20
19258;DHT22;9763;48.780;9.212;2022-08-19T16:20:10;25.70;65.90
19258;DHT22;9763;48.780;9.212;2022-08-19T16:23:34;25.70;65.50
19258;DHT22;9763;48.780;9.212;2022-08-19T16:26:58;25.80;66.00
19258;DHT22;9763;48.780;9.212;2022-08-19T16:30:22;25.80;64.90
19258;DHT22;9763;48.780;9.212;2022-08-19T16:33:46;25.70;64.60
19258;DHT22;9763;48.780;9.212;2022-08-19T16:37:11;25.60;64.40
19258;DHT22;9763;48.780;9.212;2022-08-19T16:40:35;25.60;64.30
19258;DHT22;9763;48.780;9.212;2022-08-19T16:43:59;25.40;64.10
19258;DHT22;9763;48.780;9.212;2022-08-19T16:47:22;25.30;64.10
19258;DHT22;9763;48.780;9.212;2022-08-19T16:50:46;25.20;64.10
19258;DHT22;9763;48.780;9.212;2022-08-19T16:54:12;25.00;64.20
19258;DHT22;9763;48.780;9.212;2022-08-19T16:57:36;24.90;64.50
19258;DHT22;9763;48.780;9.212;2022-08-19T17:01:01;24.90;64.70
19258;DHT22;9763;48.780;9.212;2022-08-19T17:04:26;24.70;65.70
19258;DHT22;9763;48.780;9.212;2022-08-19T17:07:50;24.70;65.20
19258;DHT22;9763;48.780;9.212;2022-08-19T17:11:15;24.70;65.30
19258;DHT22;9763;48.780;9.212;2022-08-19T17:14:40;24.70;65.40
19258;DHT22;9763;48.780;9.212;2022-08-19T17:18:08;24.70;65.30
19258;DHT22;9763;48.780;9.212;2022-08-19T17:21:35;24.70;65.50
19258;DHT22;9763;48.780;9.212;2022-08-19T17:25:00;24.70;66.30
19258;DHT22;9763;48.780;9.212;2022-08-19T17:28:27;24.70;65.30
19258;DHT22;9763;48.780;9.212;2022-08-19T17:31:51;24.80;65.20
19258;DHT22;9763;48.780;9.212;2022-08-19T17:35:15;24.70;64.80
19258;DHT22;9763;48.780;9.212;2022-08-19T17:38:45;24.70;64.80
19258;DHT22;9763;48.780;9.212;2022-08-19T17:42:09;24.70;64.80
19258;DHT22;9763;48.780;9.212;2022-08-19T17:45:34;24.80;65.70
19258;DHT22;9763;48.780;9.212;2022-08-19T17:48:58;24.60;64.90
19258;DHT22;9763;48.780;9.212;2022-08-19T17:52:22;24.60;64.80
19258;DHT22;9763;48.780;9.212;2022-08-19T17:55:46;24.60;64.80
19258;DHT22;9763;48.780;9.212;2022-08-19T17:59:10;24.60;64.70
19258;DHT22;9763;48.780;9.212;2022-08-19T18:02:44;24.60;64.70
19258;DHT22;9763;48.780;9.212;2022-08-19T18:06:13;24.60;65.00
19258;DHT22;9763;48.780;9.212;2022-08-19T18:09:38;24.50;64.60
19258;DHT22;9763;48.780;9.212;2022-08-19T18:13:10;24.50;64.60
19258;DHT22;9763;48.780;9.212;2022-08-19T18:16:39;24.40;64.40
19258;DHT22;9763;48.780;9.212;2022-08-19T18:20:06;24.40;64.40
19258;DHT22;9763;48.780;9.212;2022-08-19T18:23:33;24.40;64.70
19258;DHT22;9763;48.780;9.212;2022-08-19T18:27:07;24.30;64.50
19258;DHT22;9763;48.780;9.212;2022-08-19T18:30:31;24.30;64.50
19258;DHT22;9763;48.780;9.212;2022-08-19T18:33:55;24.20;64.50
19258;DHT22;9763;48.780;9.212;2022-08-19T18:37:20;24.10;64.60
19258;DHT22;9763;48.780;9.212;2022-08-19T18:40:44;24.00;64.80
19258;DHT22;9763;48.780;9.212;2022-08-19T18:44:25;24.00;64.80
19258;DHT22;9763;48.780;9.212;2022-08-19T18:48:06;24.00;64.80
19258;DHT22;9763;48.780;9.212;2022-08-19T18:51:49;23.90;64.70
19258;DHT22;9763;48.780;9.212;2022-08-19T18:55:14;23.90;64.80
19258;DHT22;9763;48.780;9.212;2022-08-19T18:58:39;23.90;64.90
19258;DHT22;9763;48.780;9.212;2022-08-19T19:02:04;23.80;65.00
19258;DHT22;9763;48.780;9.212;2022-08-19T19:05:28;23.80;65.10
19258;DHT22;9763;48.780;9.212;2022-08-19T19:08:52;23.80;65.30
19258;DHT22;9763;48.780;9.212;2022-08-19T19:12:18;23.70;65.30
19258;DHT22;9763;48.780;9.212;2022-08-19T19:15:42;23.70;65.40
19258;DHT22;9763;48.780;9.212;2022-08-19T19:19:06;23.70;65.40
19258;DHT22;9763;48.780;9.212;2022-08-19T19:22:34;23.60;65.40
19258;DHT22;9763;48.780;9.212;2022-08-19T19:25:57;23.60;65.50
19258;DHT22;9763;48.780;9.212;2022-08-19T19:29:23;25.10;67.10
19258;DHT22;9763;48.780;9.212;2022-08-19T19:32:48;23.60;65.60
19258;DHT22;9763;48.780;9.212;2022-08-19T19:36:12;23.60;65.50
19258;DHT22;9763;48.780;9.212;2022-08-19T19:39:36;23.60;65.60
19258;DHT22;9763;48.780;9.212;2022-08-19T19:43:08;23.60;65.70
19258;DHT22;9763;48.780;9.212;2022-08-19T19:46:33;23.50;65.60
19258;DHT22;9763;48.780;9.212;2022-08-19T19:49:56;23.50;65.90
19258;DHT22;9763;48.780;9.212;2022-08-19T19:53:37;23.50;65.90
19258;DHT22;9763;48.780;9.212;2022-08-19T19:57:00;23.50;66.00
19258;DHT22;9763;48.780;9.212;2022-08-19T20:00:24;23.40;66.00
19258;DHT22;9763;48.780;9.212;2022-08-19T20:03:49;23.40;66.10
19258;DHT22;9763;48.780;9.212;2022-08-19T20:07:13;23.50;66.30
19258;DHT22;9763;48.780;9.212;2022-08-19T20:10:37;23.50;66.20
19258;DHT22;9763;48.780;9.212;2022-08-19T20:14:03;23.50;66.30
19258;DHT22;9763;48.780;9.212;2022-08-19T20:17:29;23.50;66.30
19258;DHT22;9763;48.780;9.212;2022-08-19T20:20:54;23.50;66.20
19258;DHT22;9763;48.780;9.212;2022-08-19T20:24:21;23.60;66.40
19258;DHT22;9763;48.780;9.212;2022-08-19T20:27:46;23.60;66.40
19258;DHT22;9763;48.780;9.212;2022-08-19T20:31:10;23.70;66.30
19258;DHT22;9763;48.780;9.212;2022-08-19T20:34:34;23.70;66.20
19258;DHT22;9763;48.780;9.212;2022-08-19T20:37:59;23.70;66.20
19258;DHT22;9763;48.780;9.212;2022-08-19T20:41:23;23.70;66.10
19258;DHT22;9763;48.780;9.212;2022-08-19T20:44:47;23.70;66.00
19258;DHT22;9763;48.780;9.212;2022-08-19T20:48:11;23.70;66.10
19258;DHT22;9763;48.780;9.212;2022-08-19T20:51:35;23.70;66.00
19258;DHT22;9763;48.780;9.212;2022-08-19T20:55:01;23.70;66.00
19258;DHT22;9763;48.780;9.212;2022-08-19T20:58:25;23.70;65.90
19258;DHT22;9763;48.780;9.212;2022-08-19T21:01:49;23.70;65.40
19258;DHT22;9763;48.780;9.212;2022-08-19T21:05:13;23.70;65.20
19258;DHT22;9763;48.780;9.212;2022-08-19T21:08:38;23.80;65.00
19258;DHT22;9763;48.780;9.212;2022-08-19T21:12:04;23.80;64.90
19258;DHT22;9763;48.780;9.212;2022-08-19T21:15:28;23.80;64.70
19258;DHT22;9763;48.780;9.212;2022-08-19T21:18:52;23.90;64.40
19258;DHT22;9763;48.780;9.212;2022-08-19T21:22:16;23.90;63.90
19258;DHT22;9763;48.780;9.212;2022-08-19T21:25:40;24.00;63.90
19258;DHT22;9763;48.780;9.212;2022-08-19T21:29:17;24.00;64.00
19258;DHT22;9763;48.780;9.212;2022-08-19T21:32:41;24.00;63.60
19258;DHT22;9763;48.780;9.212;2022-08-19T21:36:05;24.10;63.70
19258;DHT22;9763;48.780;9.212;2022-08-19T21:39:29;24.10;63.70
19258;DHT22;9763;48.780;9.212;2022-08-19T21:42:53;24.10;63.50
19258;DHT22;9763;48.780;9.212;2022-08-19T21:46:19;24.20;63.00
19258;DHT22;9763;48.780;9.212;2022-08-19T21:49:42;24.20;63.40
19258;DHT22;9763;48.780;9.212;2022-08-19T21:53:06;24.20;62.60
19258;DHT22;9763;48.780;9.212;2022-08-19T21:56:38;24.20;62.30
19258;DHT22;9763;48.780;9.212;2022-08-19T22:00:04;24.30;62.20
19258;DHT22;9763;48.780;9.212;2022-08-19T22:03:33;24.30;61.80
19258;DHT22;9763;48.780;9.212;2022-08-19T22:06:58;24.30;61.70